Airfield :
LOGIN :

Register | Disclaimer

   EN    FR    IT 

 










Legend :    VFR   Marginal VFR   IFR   Intensive IFR   Very Intensive IFR
Visi :
Ceiling :
>= 8 km
>= 3000ft
5 to 8 km
1000 to 3000 ft
1500m to 5 km
500 to 1000 ft
800 to 1500m
200 to 500 ft
< 800m
< 200 ft
Symbols :   Thunderstorms  Fog  Heavy snow  Heavy precipitations  Wind > 20 kt
SIGMETs :     Misc.  Thunderstorms  Icing  Turbulence  Mountain Waves  Volcanic Ashes







- Airport Elevation : 16 ft
- IATA code : AAE


DABB - Annaba-Rabah Bitat

CURRENT METAR :
  • 210400Z 18006KT CAVOK 10/07 Q1012

EXPIRED METARs :
  • 210330Z 19004KT CAVOK 10/07 Q1013
  • 210300Z 22005KT 9999 FEW023 11/08 Q1012
  • 210230Z 18005KT 9999 FEW023 09/08 Q1012
  • 210200Z 00000KT 9999 FEW023 09/08 Q1012
  • 210130Z 23004KT 9999 FEW023 10/09 Q1012

TAF TAF DABB
Valid from the 21 at 00:00 until the 22 at 00:00 UTC


202300Z 2100/2124 17008KT 9999 FEW020
PROB30
TEMPO 2100/2103 2000 BR BKN013
BECMG 2101/2104 23012KT
PROB40
TEMPO 2102/2110 26015G25KT FEW026TCU
PROB40
TEMPO 2112/2118 FEW026TCU
BECMG 2120/2122 17008KT
No reported NOTAMs for that airfield.



MET'MAP, your aeronautical weather chart ! - Copyright ORBIFLY December 2007 - Disclaimer

ORBIFLY MET'MAP TEAM :

Programming & Development : Alexandra Zaïnal
Concept & Development : Baudouin d'Aumeries
Co-Development & Prog : Marc-Olivier Méhu
Technical & hardware support : Manuel Goepfert

Contact : metmap@orbifly.com




SOURCES & CREDITS :

   NOAA